createdAt,value
2022-08-04T00:00:06.354Z,0.00
2022-08-04T00:01:06.614Z,0.00
2022-08-04T00:02:06.730Z,0.00
2022-08-04T00:03:06.893Z,0.00
2022-08-04T00:04:07.063Z,0.00
2022-08-04T00:05:07.223Z,0.00
2022-08-04T00:06:07.384Z,0.00
2022-08-04T00:07:07.544Z,0.00
2022-08-04T00:08:07.706Z,0.00
2022-08-04T00:09:07.878Z,0.00
2022-08-04T00:10:08.034Z,0.00
2022-08-04T00:11:08.194Z,0.00
2022-08-04T00:12:09.387Z,0.00
2022-08-04T00:13:08.557Z,0.00
2022-08-04T00:14:08.755Z,0.00
2022-08-04T00:15:08.915Z,0.00
2022-08-04T00:16:10.104Z,0.00
2022-08-04T00:17:09.304Z,0.00
2022-08-04T00:18:09.462Z,0.00
2022-08-04T00:19:09.625Z,0.00
2022-08-04T00:20:09.795Z,0.00
2022-08-04T00:21:09.946Z,0.00
2022-08-04T00:22:10.136Z,0.00
2022-08-04T00:23:10.289Z,0.00
2022-08-04T00:24:12.848Z,0.00
2022-08-04T00:25:10.647Z,0.00
2022-08-04T00:26:10.804Z,0.00
2022-08-04T00:27:10.956Z,0.00
2022-08-04T00:28:11.155Z,0.00
2022-08-04T00:29:11.335Z,0.00
2022-08-04T00:30:11.500Z,0.00
2022-08-04T00:31:11.658Z,0.00
2022-08-04T00:32:11.854Z,0.00
2022-08-04T00:33:11.996Z,0.00
2022-08-04T00:34:12.207Z,0.00
2022-08-04T00:35:12.369Z,0.00
2022-08-04T00:36:12.530Z,0.00
2022-08-04T00:37:12.722Z,0.00
2022-08-04T00:38:12.856Z,0.00
2022-08-04T00:39:13.103Z,0.00
2022-08-04T00:40:13.198Z,0.00
2022-08-04T00:41:13.358Z,0.00
2022-08-04T00:42:13.525Z,0.00
2022-08-04T00:43:13.749Z,0.00
2022-08-04T00:44:13.889Z,0.00
2022-08-04T00:45:15.036Z,0.00
2022-08-04T00:46:17.164Z,0.00
2022-08-04T00:47:14.378Z,0.00
2022-08-04T00:48:14.578Z,0.00
2022-08-04T00:49:14.748Z,0.00
2022-08-04T00:50:14.909Z,0.00
2022-08-04T00:51:15.068Z,0.00
2022-08-04T00:52:31.444Z,0.00
2022-08-04T00:53:16.409Z,0.00
2022-08-04T00:54:15.621Z,0.00
2022-08-04T00:55:15.783Z,0.00
2022-08-04T00:56:15.939Z,0.00
2022-08-04T00:57:34.249Z,0.00
2022-08-04T00:58:17.290Z,0.00
2022-08-04T00:59:16.480Z,0.00
2022-08-04T01:00:16.639Z,0.00
2022-08-04T01:01:16.837Z,0.00
2022-08-04T01:02:16.970Z,0.00
2022-08-04T01:03:17.220Z,0.00
2022-08-04T01:04:22.002Z,0.00
2022-08-04T01:05:18.450Z,0.00
2022-08-04T01:06:17.638Z,0.00
2022-08-04T01:07:17.801Z,0.00
2022-08-04T01:08:17.960Z,0.00
2022-08-04T01:09:21.597Z,0.00
2022-08-04T01:10:18.307Z,0.00
2022-08-04T01:11:18.451Z,0.00
2022-08-04T01:12:18.641Z,0.00
2022-08-04T01:13:18.801Z,0.00
2022-08-04T01:14:19.012Z,0.00
2022-08-04T01:15:19.171Z,0.00
2022-08-04T01:16:19.336Z,0.00
2022-08-04T01:17:19.496Z,0.00
2022-08-04T01:18:19.653Z,0.00
2022-08-04T01:19:19.823Z,0.00
2022-08-04T01:20:19.982Z,0.00
2022-08-04T01:21:20.142Z,0.00
2022-08-04T01:22:20.302Z,0.00
2022-08-04T01:23:20.472Z,0.00
2022-08-04T01:24:20.645Z,0.00
2022-08-04T01:25:22.670Z,0.00
2022-08-04T01:26:42.105Z,0.00
2022-08-04T01:27:22.443Z,0.00
2022-08-04T01:28:21.332Z,0.00
2022-08-04T01:29:21.533Z,0.00
2022-08-04T01:30:21.693Z,0.00
2022-08-04T01:31:21.853Z,0.00
2022-08-04T01:32:26.197Z,0.00
2022-08-04T01:33:22.195Z,0.00
2022-08-04T01:34:22.383Z,0.00
2022-08-04T01:35:46.239Z,0.00
2022-08-04T01:36:23.749Z,0.00
2022-08-04T01:37:23.161Z,0.00
2022-08-04T01:38:23.064Z,0.00
2022-08-04T01:39:23.296Z,0.00
2022-08-04T01:40:23.401Z,0.00
2022-08-04T01:41:32.124Z,0.00
2022-08-04T01:42:32.048Z,0.00
2022-08-04T01:43:24.904Z,0.00
2022-08-04T01:44:24.105Z,0.00
2022-08-04T01:45:24.266Z,0.00
2022-08-04T01:46:24.425Z,0.00
2022-08-04T01:47:24.584Z,0.00
2022-08-04T01:48:24.746Z,0.00
2022-08-04T01:49:24.905Z,0.00
2022-08-04T01:50:25.075Z,0.00
2022-08-04T01:51:25.235Z,0.00
2022-08-04T01:52:25.396Z,0.00
2022-08-04T01:53:25.555Z,0.00
2022-08-04T01:54:25.765Z,0.00
2022-08-04T01:55:54.116Z,0.00
2022-08-04T01:56:27.106Z,0.00
2022-08-04T01:57:37.200Z,0.00
2022-08-04T01:58:27.474Z,0.00
2022-08-04T01:59:26.656Z,0.00
2022-08-04T02:00:26.826Z,0.00
2022-08-04T02:01:27.035Z,0.00
2022-08-04T02:02:27.438Z,0.00
2022-08-04T02:04:20.161Z,0.00
2022-08-04T02:04:28.536Z,0.00
2022-08-04T02:06:03.081Z,0.00
2022-08-04T02:06:28.857Z,0.00
2022-08-04T02:07:28.038Z,0.00
2022-08-04T02:08:28.237Z,0.00
2022-08-04T02:09:28.407Z,0.00
2022-08-04T02:10:28.576Z,0.00
2022-08-04T02:11:28.727Z,0.00
2022-08-04T02:12:28.929Z,0.00
2022-08-04T02:13:29.087Z,0.00
2022-08-04T02:14:29.261Z,0.00
2022-08-04T02:15:29.419Z,0.00
2022-08-04T02:16:29.578Z,0.00
2022-08-04T02:17:29.738Z,0.00
2022-08-04T02:18:29.941Z,0.00
2022-08-04T02:19:30.087Z,0.00
2022-08-04T02:20:30.237Z,0.00
2022-08-04T02:21:42.369Z,0.00
2022-08-04T02:22:31.578Z,0.00
2022-08-04T02:23:30.759Z,0.00
2022-08-04T02:24:30.969Z,0.00
2022-08-04T02:25:31.128Z,0.00
2022-08-04T02:26:31.296Z,0.00
2022-08-04T02:27:59.368Z,0.00
2022-08-04T02:28:32.659Z,0.00
2022-08-04T02:29:32.245Z,0.00
2022-08-04T02:30:31.991Z,0.00
2022-08-04T02:31:32.235Z,0.00
2022-08-04T02:32:32.340Z,0.00
2022-08-04T02:33:32.499Z,0.00
2022-08-04T02:34:32.669Z,0.00
2022-08-04T02:35:32.830Z,0.00
2022-08-04T02:36:32.991Z,0.00
2022-08-04T02:37:33.150Z,0.00
2022-08-04T02:38:33.347Z,0.00
2022-08-04T02:39:33.566Z,0.00
2022-08-04T02:40:34.669Z,0.00
2022-08-04T02:41:33.850Z,0.00
2022-08-04T02:42:34.019Z,0.00
2022-08-04T02:43:51.811Z,0.00
2022-08-04T02:44:35.381Z,0.00
2022-08-04T02:45:34.532Z,0.00
2022-08-04T02:46:34.695Z,0.00
2022-08-04T02:48:29.410Z,0.00
2022-08-04T02:48:36.031Z,0.00
2022-08-04T02:49:35.241Z,0.00
2022-08-04T02:50:35.421Z,0.00
2022-08-04T02:51:35.585Z,0.00
2022-08-04T02:52:35.752Z,0.00
2022-08-04T02:53:35.914Z,0.00
2022-08-04T02:54:36.081Z,0.00
2022-08-04T02:55:36.242Z,0.00
2022-08-04T02:56:37.408Z,0.00
2022-08-04T02:57:36.622Z,0.00
2022-08-04T02:58:36.787Z,0.00
2022-08-04T02:59:36.962Z,0.00
2022-08-04T03:00:37.120Z,0.00
2022-08-04T03:01:37.389Z,0.00
2022-08-04T03:02:37.462Z,0.00
2022-08-04T03:03:37.623Z,0.00
2022-08-04T03:04:37.832Z,0.00
2022-08-04T03:06:00.729Z,0.00
2022-08-04T03:06:39.182Z,0.00
2022-08-04T03:07:38.363Z,0.00
2022-08-04T03:08:38.544Z,0.00
2022-08-04T03:09:38.738Z,0.00
2022-08-04T03:10:38.915Z,0.00
2022-08-04T03:11:39.094Z,0.00
2022-08-04T03:12:39.275Z,0.00
2022-08-04T03:13:39.454Z,0.00
2022-08-04T03:14:39.644Z,0.00
2022-08-04T03:15:39.784Z,0.00
2022-08-04T03:16:39.966Z,0.00
2022-08-04T03:17:52.646Z,0.00
2022-08-04T03:18:41.342Z,0.00
2022-08-04T03:19:40.514Z,0.00
2022-08-04T03:20:40.693Z,0.00
2022-08-04T03:21:40.870Z,5.62
2022-08-04T03:22:59.900Z,5.62
2022-08-04T03:23:42.215Z,5.62
2022-08-04T03:24:41.385Z,5.62
2022-08-04T03:25:57.087Z,5.62
2022-08-04T03:26:42.696Z,5.62
2022-08-04T03:27:41.880Z,5.62
2022-08-04T03:28:42.036Z,11.25
2022-08-04T03:29:42.235Z,11.25
2022-08-04T03:30:42.415Z,11.25
2022-08-04T03:31:42.576Z,11.25
2022-08-04T03:32:42.757Z,11.25
2022-08-04T03:33:42.916Z,16.88
2022-08-04T03:34:43.125Z,16.88
2022-08-04T03:35:43.265Z,16.88
2022-08-04T03:36:43.457Z,16.88
2022-08-04T03:37:43.645Z,16.88
2022-08-04T03:38:43.825Z,22.50
2022-08-04T03:39:45.078Z,22.50
2022-08-04T03:40:44.166Z,22.50
2022-08-04T03:41:51.849Z,28.12
2022-08-04T03:42:45.526Z,28.12
2022-08-04T03:43:59.322Z,33.75
2022-08-04T03:44:45.897Z,33.75
2022-08-04T03:45:45.047Z,33.75
2022-08-04T03:46:45.238Z,39.38
2022-08-04T03:47:45.399Z,39.38
2022-08-04T03:48:45.585Z,45.00
2022-08-04T03:49:45.787Z,45.00
2022-08-04T03:50:45.967Z,56.25
2022-08-04T03:51:46.119Z,61.88
2022-08-04T03:52:47.231Z,61.88
2022-08-04T03:53:46.482Z,73.12
2022-08-04T03:54:46.684Z,90.00
2022-08-04T03:55:46.838Z,90.00
2022-08-04T03:56:47.019Z,90.00
2022-08-04T03:57:47.168Z,90.00
2022-08-04T03:58:47.342Z,90.00
2022-08-04T03:59:48.807Z,101.25
2022-08-04T04:00:47.688Z,101.25
2022-08-04T04:02:02.208Z,101.25
2022-08-04T04:02:49.083Z,106.88
2022-08-04T04:03:48.188Z,106.88
2022-08-04T04:04:48.389Z,112.50
2022-08-04T04:05:59.046Z,112.50
2022-08-04T04:06:53.687Z,106.88
2022-08-04T04:07:56.495Z,101.25
2022-08-04T04:08:50.130Z,101.25
2022-08-04T04:09:58.163Z,101.25
2022-08-04T04:10:50.480Z,106.88
2022-08-04T04:11:55.529Z,106.88
2022-08-04T04:12:50.861Z,106.88
2022-08-04T04:13:50.019Z,106.88
2022-08-04T04:14:50.222Z,106.88
2022-08-04T04:15:50.440Z,112.50
2022-08-04T04:16:50.551Z,112.50
2022-08-04T04:17:50.731Z,112.50
2022-08-04T04:18:50.900Z,118.12
2022-08-04T04:19:51.099Z,118.12
2022-08-04T04:20:52.259Z,123.75
2022-08-04T04:21:51.448Z,129.38
2022-08-04T04:22:51.621Z,135.00
2022-08-04T04:23:51.810Z,140.62
2022-08-04T04:24:52.007Z,157.50
2022-08-04T04:25:52.154Z,151.88
2022-08-04T04:26:52.331Z,140.62
2022-08-04T04:27:52.511Z,135.00
2022-08-04T04:28:52.694Z,135.00
2022-08-04T04:29:52.890Z,135.00
2022-08-04T04:30:53.041Z,140.62
2022-08-04T04:31:53.231Z,140.62
2022-08-04T04:32:53.414Z,140.62
2022-08-04T04:33:53.591Z,140.62
2022-08-04T04:34:53.788Z,146.25
2022-08-04T04:35:53.944Z,146.25
2022-08-04T04:36:54.121Z,151.88
2022-08-04T04:37:54.310Z,151.88
2022-08-04T04:38:54.504Z,151.88
2022-08-04T04:39:54.690Z,157.50
2022-08-04T04:40:54.853Z,157.50
2022-08-04T04:41:55.042Z,163.12
2022-08-04T04:42:55.213Z,163.12
2022-08-04T04:43:55.402Z,168.75
2022-08-04T04:44:55.615Z,168.75
2022-08-04T04:45:55.753Z,174.38
2022-08-04T04:46:55.933Z,174.38
2022-08-04T04:48:08.568Z,180.00
2022-08-04T04:48:57.303Z,180.00
2022-08-04T04:49:56.516Z,180.00
2022-08-04T04:50:56.683Z,185.62
2022-08-04T04:51:56.866Z,185.62
2022-08-04T04:52:57.043Z,185.62
2022-08-04T04:54:00.466Z,191.25
2022-08-04T04:54:57.404Z,191.25
2022-08-04T04:55:57.573Z,196.88
2022-08-04T04:56:57.706Z,202.50
2022-08-04T04:57:57.894Z,219.38
2022-08-04T04:58:58.074Z,258.75
2022-08-04T04:59:58.274Z,286.88
2022-08-04T05:00:58.455Z,241.88
2022-08-04T05:01:58.606Z,225.00
2022-08-04T05:03:01.095Z,219.38
2022-08-04T05:03:58.954Z,213.75
2022-08-04T05:04:59.145Z,208.12
2022-08-04T05:05:59.295Z,213.75
2022-08-04T05:06:59.478Z,208.12
2022-08-04T05:07:59.655Z,208.12
2022-08-04T05:09:00.853Z,208.12
2022-08-04T05:10:00.065Z,213.75
2022-08-04T05:11:00.226Z,213.75
2022-08-04T05:12:00.415Z,219.38
2022-08-04T05:14:38.146Z,225.00
2022-08-04T05:14:39.069Z,225.00
2022-08-04T05:15:01.936Z,230.62
2022-08-04T05:16:01.096Z,236.25
2022-08-04T05:17:01.276Z,236.25
2022-08-04T05:18:01.458Z,241.88
2022-08-04T05:19:01.636Z,253.12
2022-08-04T05:20:01.841Z,264.38
2022-08-04T05:21:02.015Z,270.00
2022-08-04T05:22:02.197Z,275.62
2022-08-04T05:23:02.377Z,270.00
2022-08-04T05:24:02.569Z,286.88
2022-08-04T05:25:02.750Z,298.12
2022-08-04T05:26:02.899Z,331.88
2022-08-04T05:27:03.078Z,455.62
2022-08-04T05:28:03.269Z,663.75
2022-08-04T05:29:03.427Z,826.88
2022-08-04T05:30:03.619Z,916.88
2022-08-04T05:31:03.766Z,950.62
2022-08-04T05:32:03.936Z,978.75
2022-08-04T05:33:04.101Z,1012.50
2022-08-04T05:34:04.290Z,1018.12
2022-08-04T05:35:04.448Z,1040.62
2022-08-04T05:36:20.673Z,1057.50
2022-08-04T05:37:05.797Z,1080.00
2022-08-04T05:38:04.990Z,1096.88
2022-08-04T05:39:05.194Z,1108.12
2022-08-04T05:40:05.351Z,1119.38
2022-08-04T05:41:05.481Z,1125.00
2022-08-04T05:42:07.425Z,1141.88
2022-08-04T05:43:05.850Z,1147.50
2022-08-04T05:44:06.031Z,1158.75
2022-08-04T05:45:06.220Z,1192.50
2022-08-04T05:46:06.402Z,1175.62
2022-08-04T05:47:06.572Z,1192.50
2022-08-04T05:48:06.751Z,1198.12
2022-08-04T05:49:06.922Z,1186.88
2022-08-04T05:50:07.131Z,1181.25
2022-08-04T05:51:07.271Z,1175.62
2022-08-04T05:52:07.474Z,1153.12
2022-08-04T05:53:07.633Z,1153.12
2022-08-04T05:54:07.823Z,1153.12
2022-08-04T05:55:08.020Z,1125.00
2022-08-04T05:56:08.164Z,1119.38
2022-08-04T05:57:08.334Z,1108.12
2022-08-04T05:58:08.524Z,1096.88
2022-08-04T05:59:08.693Z,1096.88
2022-08-04T06:00:38.419Z,1080.00
2022-08-04T06:01:10.053Z,1085.62
2022-08-04T06:02:09.272Z,1102.50
2022-08-04T06:03:09.405Z,1113.75
2022-08-04T06:04:11.522Z,1119.38
2022-08-04T06:05:09.793Z,1136.25
2022-08-04T06:06:09.935Z,1153.12
2022-08-04T06:07:10.116Z,1175.62
2022-08-04T06:08:13.670Z,1192.50
2022-08-04T06:09:10.477Z,1203.75
2022-08-04T06:10:10.666Z,1231.88
2022-08-04T06:11:10.807Z,1271.25
2022-08-04T06:12:10.996Z,1288.12
2022-08-04T06:13:49.837Z,1293.75
2022-08-04T06:14:12.358Z,1260.00
2022-08-04T06:15:11.547Z,1243.12
2022-08-04T06:16:28.836Z,1226.25
2022-08-04T06:18:33.713Z,1209.38
2022-08-04T06:19:58.941Z,1203.75
2022-08-04T06:19:59.652Z,1215.00
2022-08-04T06:20:19.140Z,1209.38
2022-08-04T06:21:16.435Z,1209.38
2022-08-04T06:22:12.727Z,1209.38
2022-08-04T06:23:12.905Z,1220.62
2022-08-04T06:24:13.094Z,1220.62
2022-08-04T06:25:13.281Z,1215.00
2022-08-04T06:26:13.469Z,1209.38
2022-08-04T06:27:13.676Z,1220.62
2022-08-04T06:28:13.810Z,1237.50
2022-08-04T06:29:13.982Z,1260.00
2022-08-04T06:30:14.193Z,1293.75
2022-08-04T06:32:29.771Z,1333.12
2022-08-04T06:32:30.810Z,1299.38
2022-08-04T06:33:15.671Z,1361.25
2022-08-04T06:34:14.862Z,1406.25
2022-08-04T06:35:15.061Z,1434.38
2022-08-04T06:36:15.254Z,1462.50
2022-08-04T06:37:24.066Z,1473.75
2022-08-04T06:38:16.592Z,1456.88
2022-08-04T06:39:15.794Z,1451.25
2022-08-04T06:40:31.480Z,1462.50
2022-08-04T06:41:17.135Z,1462.50
2022-08-04T06:42:22.747Z,1428.75
2022-08-04T06:43:17.466Z,1400.62
2022-08-04T06:44:16.660Z,1400.62
2022-08-04T06:45:16.846Z,1383.75
2022-08-04T06:46:16.996Z,1383.75
2022-08-04T06:47:17.175Z,1395.00
2022-08-04T06:48:17.356Z,1378.12
2022-08-04T06:49:17.526Z,1378.12
2022-08-04T06:51:29.474Z,1428.75
2022-08-04T06:51:32.266Z,1411.88
2022-08-04T06:52:19.050Z,1456.88
2022-08-04T06:53:18.233Z,1473.75
2022-08-04T06:54:18.368Z,1468.12
2022-08-04T06:55:18.568Z,1479.38
2022-08-04T06:56:18.708Z,1456.88
2022-08-04T06:57:19.046Z,1490.62
2022-08-04T06:58:19.085Z,1535.62
2022-08-04T06:59:19.257Z,1575.00
2022-08-04T07:00:19.459Z,1665.00
2022-08-04T07:01:19.660Z,1726.88
2022-08-04T07:02:19.820Z,1755.00
2022-08-04T07:03:20.005Z,1828.12
2022-08-04T07:04:20.180Z,1878.75
2022-08-04T07:05:20.371Z,1890.00
2022-08-04T07:06:20.552Z,1935.00
2022-08-04T07:07:20.963Z,1980.00
2022-08-04T07:08:21.916Z,1957.50
2022-08-04T07:09:21.105Z,1963.12
2022-08-04T07:10:22.192Z,2008.12
2022-08-04T07:11:21.478Z,2047.50
2022-08-04T07:12:21.664Z,2098.12
2022-08-04T07:13:21.834Z,2137.50
2022-08-04T07:14:22.012Z,2160.00
2022-08-04T07:15:22.203Z,2216.25
2022-08-04T07:16:30.480Z,2283.75
2022-08-04T07:17:23.704Z,2300.62
2022-08-04T07:18:23.727Z,2340.00
2022-08-04T07:19:22.914Z,2272.50
2022-08-04T07:20:34.167Z,2250.00
2022-08-04T07:21:24.253Z,2345.62
2022-08-04T07:22:25.648Z,2424.38
2022-08-04T07:23:23.624Z,2480.62
2022-08-04T07:24:23.805Z,2508.75
2022-08-04T07:25:23.996Z,2430.00
2022-08-04T07:26:25.176Z,2390.62
2022-08-04T07:27:48.118Z,2379.38
2022-08-04T07:28:25.517Z,2390.62
2022-08-04T07:29:24.677Z,2435.62
2022-08-04T07:30:25.064Z,2430.00
2022-08-04T07:31:33.669Z,2368.12
2022-08-04T07:32:26.209Z,2407.50
2022-08-04T07:33:25.368Z,2531.25
2022-08-04T07:34:25.550Z,2531.25
2022-08-04T07:36:10.518Z,2452.50
2022-08-04T07:36:30.081Z,2497.50
2022-08-04T07:37:38.959Z,2497.50
2022-08-04T07:38:27.770Z,2430.00
2022-08-04T07:39:28.551Z,2486.25
2022-08-04T07:40:26.581Z,2514.38
2022-08-04T07:41:44.196Z,2503.12
2022-08-04T07:42:27.929Z,2458.12
2022-08-04T07:43:27.120Z,2441.25
2022-08-04T07:44:27.301Z,2446.88
2022-08-04T07:45:27.497Z,2458.12
2022-08-04T07:46:27.662Z,2463.75
2022-08-04T07:47:27.919Z,2458.12
2022-08-04T07:48:27.991Z,2514.38
2022-08-04T07:49:56.187Z,2542.50
2022-08-04T07:50:29.374Z,2666.25
2022-08-04T07:51:28.524Z,2728.12
2022-08-04T07:52:28.723Z,2756.25
2022-08-04T07:53:54.714Z,2874.38
2022-08-04T07:54:30.083Z,2941.88
2022-08-04T07:55:29.292Z,2936.25
2022-08-04T07:56:29.472Z,2902.50
2022-08-04T07:57:40.448Z,2885.62
2022-08-04T07:58:30.835Z,2930.62
2022-08-04T07:59:29.995Z,2925.00
2022-08-04T08:00:30.197Z,3015.00
2022-08-04T08:01:30.337Z,2902.50
2022-08-04T08:02:30.536Z,2868.75
2022-08-04T08:03:30.725Z,2998.12
2022-08-04T08:04:30.917Z,3020.62
2022-08-04T08:05:31.055Z,3071.25
2022-08-04T08:06:35.579Z,3150.00
2022-08-04T08:07:32.393Z,3200.62
2022-08-04T08:08:31.586Z,3206.25
2022-08-04T08:09:31.778Z,3161.25
2022-08-04T08:10:31.956Z,3076.88
2022-08-04T08:12:35.441Z,2806.88
2022-08-04T08:12:37.316Z,2655.00
2022-08-04T08:13:33.467Z,2649.38
2022-08-04T08:14:32.678Z,2593.12
2022-08-04T08:15:32.831Z,2581.88
2022-08-04T08:16:33.008Z,2553.75
2022-08-04T08:17:33.189Z,2598.75
2022-08-04T08:18:34.369Z,2677.50
2022-08-04T08:19:33.569Z,2812.50
2022-08-04T08:20:33.765Z,2975.62
2022-08-04T08:21:33.930Z,3048.75
2022-08-04T08:22:34.110Z,3026.25
2022-08-04T08:23:34.290Z,3093.75
2022-08-04T08:24:34.487Z,3189.38
2022-08-04T08:25:34.638Z,3251.25
2022-08-04T08:26:34.811Z,3211.88
2022-08-04T08:27:34.992Z,3256.88
2022-08-04T08:28:35.161Z,3324.38
2022-08-04T08:29:35.416Z,3228.75
2022-08-04T08:30:35.523Z,3301.88
2022-08-04T08:31:56.531Z,3363.75
2022-08-04T08:32:36.894Z,3307.50
2022-08-04T08:33:36.046Z,3307.50
2022-08-04T08:34:36.271Z,3290.62
2022-08-04T08:35:39.811Z,3228.75
2022-08-04T08:36:37.579Z,3195.00
2022-08-04T08:37:41.908Z,3223.12
2022-08-04T08:38:37.913Z,3206.25
2022-08-04T08:39:37.155Z,3206.25
2022-08-04T08:40:41.173Z,3420.00
2022-08-04T08:41:37.435Z,3690.00
2022-08-04T08:42:37.615Z,3802.50
2022-08-04T08:44:05.010Z,3858.75
2022-08-04T08:44:39.015Z,3808.12
2022-08-04T08:45:38.182Z,3740.62
2022-08-04T08:46:48.994Z,3690.00
2022-08-04T08:48:05.040Z,3706.88
2022-08-04T08:48:39.695Z,3982.50
2022-08-04T08:50:00.394Z,4185.00
2022-08-04T08:50:40.076Z,4224.38
2022-08-04T08:51:39.252Z,4342.50
2022-08-04T08:52:56.616Z,4443.75
2022-08-04T08:53:40.588Z,4156.88
2022-08-04T08:54:39.784Z,3870.00
2022-08-04T08:55:39.973Z,3870.00
2022-08-04T08:56:40.146Z,3971.25
2022-08-04T08:58:00.081Z,3965.62
2022-08-04T08:58:41.506Z,3796.88
2022-08-04T08:59:40.738Z,3588.75
2022-08-04T09:00:40.926Z,3566.25
2022-08-04T09:01:42.028Z,3701.25
2022-08-04T09:02:41.259Z,3690.00
2022-08-04T09:03:41.438Z,3628.12
2022-08-04T09:04:41.618Z,3571.88
2022-08-04T09:05:41.807Z,3481.88
2022-08-04T09:06:41.985Z,3420.00
2022-08-04T09:07:42.150Z,3420.00
2022-08-04T09:08:42.322Z,3341.25
2022-08-04T09:09:42.529Z,3240.00
2022-08-04T09:10:42.678Z,3200.62
2022-08-04T09:11:42.850Z,3155.62
2022-08-04T09:12:43.029Z,3155.62
2022-08-04T09:13:43.211Z,3105.00
2022-08-04T09:14:43.409Z,3138.75
2022-08-04T09:15:43.559Z,3144.38
2022-08-04T09:16:43.758Z,3127.50
2022-08-04T09:17:43.911Z,2981.25
2022-08-04T09:18:44.090Z,2868.75
2022-08-04T09:19:44.292Z,2880.00
2022-08-04T09:20:44.439Z,2835.00
2022-08-04T09:21:44.619Z,2840.62
2022-08-04T09:22:44.838Z,2936.25
2022-08-04T09:23:44.991Z,2953.12
2022-08-04T09:24:45.172Z,2896.88
2022-08-04T09:25:45.371Z,2902.50
2022-08-04T09:26:45.532Z,2953.12
2022-08-04T09:27:45.722Z,2896.88
2022-08-04T09:28:54.667Z,2953.12
2022-08-04T09:29:47.101Z,3088.12
2022-08-04T09:30:46.264Z,3138.75
2022-08-04T09:31:51.606Z,3178.12
2022-08-04T09:32:47.623Z,3369.38
2022-08-04T09:33:46.814Z,3746.25
2022-08-04T09:34:47.001Z,4185.00
2022-08-04T09:35:48.182Z,3993.75
2022-08-04T09:36:47.342Z,3954.38
2022-08-04T09:37:47.520Z,3965.62
2022-08-04T09:38:51.763Z,4286.25
2022-08-04T09:39:51.965Z,4533.75
2022-08-04T09:40:53.000Z,4606.88
2022-08-04T09:41:52.703Z,4539.38
2022-08-04T09:42:48.393Z,4303.12
2022-08-04T09:44:01.201Z,3819.38
2022-08-04T09:44:55.237Z,3538.12
2022-08-04T09:45:50.587Z,3375.00
2022-08-04T09:46:49.073Z,3285.00
2022-08-04T09:47:49.258Z,3346.88
2022-08-04T09:48:49.432Z,2947.50
2022-08-04T09:49:49.623Z,2716.88
2022-08-04T09:50:50.684Z,2711.25
2022-08-04T09:51:57.191Z,2868.75
2022-08-04T09:52:51.135Z,3358.12
2022-08-04T09:53:50.331Z,3318.75
2022-08-04T09:54:50.527Z,3560.62
2022-08-04T09:55:53.747Z,3931.88
2022-08-04T09:56:50.845Z,3740.62
2022-08-04T09:57:51.033Z,3571.88
2022-08-04T09:58:51.208Z,3414.38
2022-08-04T09:59:51.411Z,4010.62
2022-08-04T10:00:51.583Z,4410.00
2022-08-04T10:01:59.729Z,4646.25
2022-08-04T10:02:53.025Z,4781.25
2022-08-04T10:03:52.136Z,5664.38
2022-08-04T10:04:52.346Z,6007.50
2022-08-04T10:05:52.498Z,5788.12
2022-08-04T10:06:52.676Z,6255.00
2022-08-04T10:07:59.542Z,6170.62
2022-08-04T10:08:57.013Z,5045.62
2022-08-04T10:09:53.227Z,4218.75
2022-08-04T10:10:53.372Z,3633.75
2022-08-04T10:11:54.346Z,3375.00
2022-08-04T10:12:53.729Z,3223.12
2022-08-04T10:13:53.927Z,3279.38
2022-08-04T10:14:54.116Z,3324.38
2022-08-04T10:15:54.296Z,3442.50
2022-08-04T10:16:54.476Z,3408.75
2022-08-04T10:17:54.684Z,3223.12
2022-08-04T10:18:54.836Z,2992.50
2022-08-04T10:19:55.036Z,3251.25
2022-08-04T10:20:58.997Z,3498.75
2022-08-04T10:22:26.910Z,3403.12
2022-08-04T10:23:11.167Z,3273.75
2022-08-04T10:24:00.331Z,3015.00
2022-08-04T10:24:55.898Z,2896.88
2022-08-04T10:26:05.453Z,2458.12
2022-08-04T10:26:58.228Z,1231.88
2022-08-04T10:27:56.399Z,658.12
2022-08-04T10:28:56.590Z,590.62
2022-08-04T10:29:56.781Z,562.50
2022-08-04T10:30:56.931Z,562.50
2022-08-04T10:31:57.133Z,573.75
2022-08-04T10:32:57.302Z,573.75
2022-08-04T10:33:57.489Z,573.75
2022-08-04T10:34:57.662Z,568.12
2022-08-04T10:35:57.813Z,562.50
2022-08-04T10:36:57.991Z,562.50
2022-08-04T10:38:01.640Z,568.12
2022-08-04T10:38:58.400Z,573.75
2022-08-04T10:39:58.575Z,579.38
2022-08-04T10:40:58.684Z,579.38
2022-08-04T10:41:59.718Z,579.38
2022-08-04T10:42:59.050Z,579.38
2022-08-04T10:43:59.224Z,568.12
2022-08-04T10:44:59.424Z,568.12
2022-08-04T10:45:59.575Z,562.50
2022-08-04T10:46:59.755Z,562.50
2022-08-04T10:48:01.551Z,556.88
2022-08-04T10:49:00.113Z,556.88
2022-08-04T10:50:00.323Z,556.88
2022-08-04T10:51:00.445Z,556.88
2022-08-04T10:52:00.636Z,596.25
2022-08-04T10:53:00.830Z,601.88
2022-08-04T10:54:01.008Z,601.88
2022-08-04T10:55:01.187Z,590.62
2022-08-04T10:56:07.082Z,596.25
2022-08-04T10:57:02.545Z,579.38
2022-08-04T10:58:01.696Z,568.12
2022-08-04T10:59:01.877Z,562.50
2022-08-04T11:00:03.850Z,551.25
2022-08-04T11:01:02.217Z,545.62
2022-08-04T11:02:03.900Z,517.50
2022-08-04T11:03:02.657Z,500.62
2022-08-04T11:04:02.728Z,500.62
2022-08-04T11:05:02.913Z,506.25
2022-08-04T11:06:03.099Z,506.25
2022-08-04T11:07:03.281Z,506.25
2022-08-04T11:08:04.800Z,495.00
2022-08-04T11:09:03.630Z,489.38
2022-08-04T11:10:03.830Z,489.38
2022-08-04T11:11:03.979Z,483.75
2022-08-04T11:12:04.169Z,489.38
2022-08-04T11:13:04.350Z,489.38
2022-08-04T11:14:04.531Z,495.00
2022-08-04T11:15:04.728Z,495.00
2022-08-04T11:16:04.872Z,489.38
2022-08-04T11:17:05.051Z,489.38
2022-08-04T11:18:05.240Z,489.38
2022-08-04T11:19:06.429Z,495.00
2022-08-04T11:20:32.088Z,500.62
2022-08-04T11:21:06.783Z,500.62
2022-08-04T11:22:06.260Z,483.75
2022-08-04T11:23:06.163Z,495.00
2022-08-04T11:24:06.313Z,517.50
2022-08-04T11:25:06.510Z,534.38
2022-08-04T11:26:06.679Z,534.38
2022-08-04T11:27:06.822Z,545.62
2022-08-04T11:28:07.011Z,556.88
2022-08-04T11:29:07.184Z,568.12
2022-08-04T11:30:07.383Z,568.12
2022-08-04T11:31:07.529Z,562.50
2022-08-04T11:32:07.712Z,556.88
2022-08-04T11:33:07.920Z,568.12
2022-08-04T11:34:08.056Z,590.62
2022-08-04T11:35:08.246Z,613.12
2022-08-04T11:36:08.447Z,641.25
2022-08-04T11:37:14.056Z,669.38
2022-08-04T11:38:09.797Z,675.00
2022-08-04T11:39:09.073Z,680.62
2022-08-04T11:40:09.219Z,703.12
2022-08-04T11:41:09.362Z,708.75
2022-08-04T11:42:09.539Z,731.25
2022-08-04T11:43:09.729Z,748.12
2022-08-04T11:44:12.840Z,759.38
2022-08-04T11:45:10.071Z,759.38
2022-08-04T11:46:10.239Z,765.00
2022-08-04T11:47:10.399Z,765.00
2022-08-04T11:48:10.576Z,753.75
2022-08-04T11:49:10.731Z,725.62
2022-08-04T11:50:11.413Z,703.12
2022-08-04T11:51:11.072Z,691.88
2022-08-04T11:52:11.250Z,691.88
2022-08-04T11:53:11.431Z,691.88
2022-08-04T11:54:11.619Z,691.88
2022-08-04T11:55:11.808Z,686.25
2022-08-04T11:56:12.479Z,680.62
2022-08-04T11:57:12.192Z,686.25
2022-08-04T11:58:12.331Z,680.62
2022-08-04T11:59:12.512Z,669.38
2022-08-04T12:00:12.756Z,652.50
2022-08-04T12:01:12.883Z,635.62
2022-08-04T12:02:15.687Z,601.88
2022-08-04T12:03:13.506Z,585.00
2022-08-04T12:04:13.383Z,568.12
2022-08-04T12:05:35.561Z,551.25
2022-08-04T12:06:14.741Z,551.25
2022-08-04T12:07:30.874Z,551.25
2022-08-04T12:08:15.114Z,562.50
2022-08-04T12:09:14.304Z,568.12
2022-08-04T12:10:14.518Z,573.75
2022-08-04T12:11:14.652Z,579.38
2022-08-04T12:12:14.835Z,573.75
2022-08-04T12:13:15.023Z,568.12
2022-08-04T12:14:15.206Z,556.88
2022-08-04T12:15:15.537Z,534.38
2022-08-04T12:16:15.576Z,528.75
2022-08-04T12:17:15.759Z,517.50
2022-08-04T12:18:15.977Z,517.50
2022-08-04T12:19:16.118Z,511.88
2022-08-04T12:20:31.426Z,495.00
2022-08-04T12:21:17.468Z,461.25
2022-08-04T12:22:16.638Z,461.25
2022-08-04T12:23:16.800Z,483.75
2022-08-04T12:24:16.971Z,495.00
2022-08-04T12:25:17.169Z,495.00
2022-08-04T12:26:17.319Z,489.38
2022-08-04T12:27:17.500Z,495.00
2022-08-04T12:28:17.680Z,500.62
2022-08-04T12:29:17.860Z,523.12
2022-08-04T12:31:00.105Z,511.88
2022-08-04T12:31:19.210Z,523.12
2022-08-04T12:32:18.410Z,528.75
2022-08-04T12:33:18.561Z,540.00
2022-08-04T12:34:18.741Z,551.25
2022-08-04T12:35:18.931Z,556.88